Time;durP1;ratioP1;P1;durP2;ratioP2;P2;SDS_P1;SDS_P2;PMS_P1;PMS_P2;Temp;Humidity;BMP_temperature;BMP_pressure;BME280_temperature;BME280_humidity;BME280_pressure;Samples;Min_cycle;Max_cycle;Signal;HPM_P1;HPM_P2
2023/12/04 01:42:32;;;;;;;13.82;9.55;;;;;;;;;;4949589;22;20060;-78
2023/12/04 01:45:02;;;;;;;12.48;8.10;;;;;;;;;;5015904;28;20056;-77
2023/12/04 01:47:31;;;;;;;12.70;9.20;;;;;;;;;;5016650;28;20053;-77
2023/12/04 01:49:59;;;;;;;15.23;9.88;;;;;;;;;;5032684;28;20037;-77
2023/12/04 01:52:28;;;;;;;15.77;9.32;;;;;;;;;;5032849;28;20049;-77
2023/12/04 01:54:56;;;;;;;11.05;9.85;;;;;;;;;;5012423;28;20487;-77
2023/12/04 01:57:23;;;;;;;16.80;10.93;;;;;;;;;;5032234;28;20057;-77
2023/12/04 01:59:54;;;;;;;11.23;9.23;;;;;;;;;;5030381;28;20052;-77
2023/12/04 02:02:21;;;;;;;10.30;8.15;;;;;;;;;;5012376;28;20538;-77
2023/12/04 02:04:48;;;;;;;9.80;8.48;;;;;;;;;;5045842;28;20041;-77
2023/12/04 02:07:18;;;;;;;17.50;11.85;;;;;;;;;;5034946;28;20068;-77
2023/12/04 02:09:46;;;;;;;12.32;9.55;;;;;;;;;;5029030;28;20045;-77
2023/12/04 02:12:18;;;;;;;14.88;8.48;;;;;;;;;;5046864;28;20052;-77
2023/12/04 02:14:50;;;;;;;16.75;7.68;;;;;;;;;;5030576;28;20059;-78
2023/12/04 02:17:19;;;;;;;15.70;11.07;;;;;;;;;;5007990;28;20510;-78
2023/12/04 02:19:48;;;;;;;16.10;9.50;;;;;;;;;;5034210;28;20647;-78
2023/12/04 02:22:18;;;;;;;10.68;7.93;;;;;;;;;;5028268;28;20057;-78
2023/12/04 02:24:49;;;;;;;15.50;9.00;;;;;;;;;;5039686;28;20052;-78
2023/12/04 02:27:19;;;;;;;9.50;7.70;;;;;;;;;;5016281;28;20053;-78
2023/12/04 02:29:48;;;;;;;12.57;11.20;;;;;;;;;;5020036;28;20049;-78
2023/12/04 02:32:19;;;;;;;12.52;10.60;;;;;;;;;;5020930;28;20051;-78
2023/12/04 02:34:50;;;;;;;13.10;8.90;;;;;;;;;;5044790;28;20049;-78
2023/12/04 02:37:18;;;;;;;11.10;9.90;;;;;;;;;;5035662;28;20487;-78
2023/12/04 02:39:52;;;;;;;15.73;7.90;;;;;;;;;;5020561;28;20051;-78
2023/12/04 02:42:22;;;;;;;14.88;10.10;;;;;;;;;;5037688;28;20056;-78
2023/12/04 02:44:51;;;;;;;10.00;7.45;;;;;;;;;;5057058;28;20434;-78
2023/12/04 02:47:19;;;;;;;17.48;11.68;;;;;;;;;;5021444;28;20059;-78
2023/12/04 02:49:46;;;;;;;15.00;10.60;;;;;;;;;;5020333;28;20046;-78
2023/12/04 02:52:13;;;;;;;13.27;9.27;;;;;;;;;;5039030;28;20048;-78
2023/12/04 02:54:40;;;;;;;16.85;9.93;;;;;;;;;;5015814;28;20054;-78
2023/12/04 02:57:11;;;;;;;16.67;9.95;;;;;;;;;;5038768;28;20060;-78
2023/12/04 02:59:41;;;;;;;11.85;8.55;;;;;;;;;;5037075;28;20056;-78
2023/12/04 03:02:08;;;;;;;11.85;10.15;;;;;;;;;;5039677;28;20060;-78
2023/12/04 03:04:36;;;;;;;13.50;9.85;;;;;;;;;;5043286;28;20055;-78
2023/12/04 03:07:05;;;;;;;13.00;9.73;;;;;;;;;;5050500;28;20082;-78
2023/12/04 03:09:32;;;;;;;14.32;9.50;;;;;;;;;;5019953;28;20041;-78
2023/12/04 03:12:00;;;;;;;11.75;8.25;;;;;;;;;;5046267;28;20060;-78
2023/12/04 03:14:28;;;;;;;13.48;9.25;;;;;;;;;;5040132;28;20052;-78
2023/12/04 03:16:58;;;;;;;10.25;8.07;;;;;;;;;;5048018;28;20052;-78
2023/12/04 03:19:27;;;;;;;12.57;9.52;;;;;;;;;;5036774;28;20045;-78
2023/12/04 03:21:56;;;;;;;11.32;9.48;;;;;;;;;;5012874;28;20049;-78
2023/12/04 03:24:24;;;;;;;12.70;9.38;;;;;;;;;;5041006;28;20072;-78
2023/12/04 03:26:51;;;;;;;15.45;12.32;;;;;;;;;;5018730;28;20661;-78
2023/12/04 03:29:20;;;;;;;11.85;8.68;;;;;;;;;;5038052;28;20046;-78
2023/12/04 03:31:49;;;;;;;14.43;8.20;;;;;;;;;;5046052;28;20400;-78
2023/12/04 03:34:18;;;;;;;12.05;9.07;;;;;;;;;;5037911;28;20052;-78
2023/12/04 03:36:46;;;;;;;11.77;8.90;;;;;;;;;;5038090;28;20087;-78
2023/12/04 03:39:13;;;;;;;16.67;8.57;;;;;;;;;;5036271;28;20045;-78
2023/12/04 03:41:43;;;;;;;11.57;8.38;;;;;;;;;;5013481;28;20041;-78
2023/12/04 03:44:10;;;;;;;12.13;10.52;;;;;;;;;;5033310;28;20407;-78
2023/12/04 03:46:37;;;;;;;12.80;9.48;;;;;;;;;;5012101;28;20065;-78
2023/12/04 03:49:08;;;;;;;13.38;8.88;;;;;;;;;;5015949;28;20522;-78
2023/12/04 03:51:40;;;;;;;10.77;9.60;;;;;;;;;;5020138;28;20410;-79
2023/12/04 03:54:09;;;;;;;10.77;9.82;;;;;;;;;;5033079;28;20059;-79
2023/12/04 03:56:42;;;;;;;13.68;7.30;;;;;;;;;;5016403;28;20056;-79
2023/12/04 03:59:10;;;;;;;10.80;9.32;;;;;;;;;;5010710;28;20699;-79
2023/12/04 04:01:37;;;;;;;13.93;9.30;;;;;;;;;;5030600;28;20044;-79
2023/12/04 04:04:05;;;;;;;12.32;9.07;;;;;;;;;;5027797;28;20049;-79
2023/12/04 04:06:33;;;;;;;11.18;8.93;;;;;;;;;;5019508;28;20036;-79
2023/12/04 04:09:00;;;;;;;15.25;9.55;;;;;;;;;;5054085;28;20041;-78
2023/12/04 04:11:30;;;;;;;10.82;7.85;;;;;;;;;;5051913;28;20052;-79
2023/12/04 04:13:57;;;;;;;12.20;10.40;;;;;;;;;;5026981;28;20491;-79
2023/12/04 04:16:27;;;;;;;13.88;10.50;;;;;;;;;;5016474;28;20049;-79
2023/12/04 04:18:59;;;;;;;13.00;9.55;;;;;;;;;;5010868;28;20052;-79
2023/12/04 04:21:29;;;;;;;14.05;8.25;;;;;;;;;;5027094;28;20503;-77
2023/12/04 04:23:57;;;;;;;15.15;8.10;;;;;;;;;;5014921;28;20053;-77
2023/12/04 04:26:29;;;;;;;11.90;9.10;;;;;;;;;;5030640;28;20052;-78
2023/12/04 04:28:56;;;;;;;14.55;7.93;;;;;;;;;;5014714;28;20395;-78
2023/12/04 04:31:26;;;;;;;13.30;8.35;;;;;;;;;;5042930;28;20056;-78
2023/12/04 04:33:54;;;;;;;15.10;7.68;;;;;;;;;;5032408;28;20048;-78
2023/12/04 04:36:23;;;;;;;10.32;7.80;;;;;;;;;;5019872;28;20059;-78
2023/12/04 04:38:50;;;;;;;10.55;8.23;;;;;;;;;;5031050;28;20045;-78
2023/12/04 04:41:24;;;;;;;10.65;8.18;;;;;;;;;;5029407;28;20064;-78
2023/12/04 04:43:51;;;;;;;14.52;9.18;;;;;;;;;;5034938;28;20372;-78
2023/12/04 04:46:18;;;;;;;11.18;9.32;;;;;;;;;;5047062;28;20054;-78
2023/12/04 04:48:48;;;;;;;10.00;7.47;;;;;;;;;;5015234;28;20502;-78
2023/12/04 04:51:15;;;;;;;11.63;8.55;;;;;;;;;;5032510;28;20064;-78
2023/12/04 04:53:42;;;;;;;10.23;9.10;;;;;;;;;;5041806;28;20048;-78
2023/12/04 04:56:12;;;;;;;9.32;7.57;;;;;;;;;;5018357;28;20048;-78
2023/12/04 04:58:43;;;;;;;13.02;9.35;;;;;;;;;;5032355;28;20407;-78
2023/12/04 05:01:13;;;;;;;12.50;7.85;;;;;;;;;;5045398;28;20103;-78
2023/12/04 05:03:42;;;;;;;13.25;8.75;;;;;;;;;;5048767;28;20048;-78
2023/12/04 05:06:12;;;;;;;14.95;8.90;;;;;;;;;;5038858;28;20120;-78
2023/12/04 05:08:40;;;;;;;11.00;9.00;;;;;;;;;;5028413;28;20049;-78
2023/12/04 05:11:07;;;;;;;10.05;6.03;;;;;;;;;;5032779;28;20053;-79
2023/12/04 05:13:37;;;;;;;10.50;7.75;;;;;;;;;;5044143;28;20037;-79
2023/12/04 05:16:08;;;;;;;10.30;8.05;;;;;;;;;;5040279;28;20052;-79
2023/12/04 05:18:39;;;;;;;13.35;9.00;;;;;;;;;;5010667;28;20053;-79
2023/12/04 05:21:09;;;;;;;10.50;8.18;;;;;;;;;;5031984;28;20049;-79
2023/12/04 05:23:37;;;;;;;13.38;8.20;;;;;;;;;;5031675;28;20032;-79
2023/12/04 05:26:07;;;;;;;11.88;9.13;;;;;;;;;;5056967;28;20047;-77
2023/12/04 05:28:36;;;;;;;9.98;8.75;;;;;;;;;;5054940;28;20029;-77
2023/12/04 05:31:04;;;;;;;12.98;10.27;;;;;;;;;;5045682;28;20025;-77
2023/12/04 05:33:33;;;;;;;11.43;9.15;;;;;;;;;;5057401;28;20039;-77
2023/12/04 05:36:00;;;;;;;13.30;9.02;;;;;;;;;;5049902;28;20049;-78
2023/12/04 05:38:28;;;;;;;10.80;7.90;;;;;;;;;;5033136;28;20045;-78
2023/12/04 05:40:59;;;;;;;9.07;8.00;;;;;;;;;;5028109;28;20064;-78
2023/12/04 05:43:29;;;;;;;11.00;7.25;;;;;;;;;;5032665;28;20060;-78
2023/12/04 05:45:56;;;;;;;13.57;7.90;;;;;;;;;;5016320;28;20052;-78
2023/12/04 05:48:23;;;;;;;10.15;7.38;;;;;;;;;;5020047;28;20049;-81
2023/12/04 05:50:54;;;;;;;11.70;7.43;;;;;;;;;;5016753;28;20053;-81
2023/12/04 05:53:22;;;;;;;13.40;9.50;;;;;;;;;;5025556;28;20050;-80
2023/12/04 05:55:51;;;;;;;12.00;8.35;;;;;;;;;;5010328;28;20075;-81
2023/12/04 05:58:21;;;;;;;23.92;8.32;;;;;;;;;;5005915;28;20053;-81
2023/12/04 06:00:50;;;;;;;10.13;8.02;;;;;;;;;;5025433;28;20033;-80
2023/12/04 06:03:18;;;;;;;13.30;7.70;;;;;;;;;;5029563;28;20060;-81
2023/12/04 06:05:48;;;;;;;11.63;7.50;;;;;;;;;;5034131;28;20045;-80
2023/12/04 06:08:16;;;;;;;17.10;9.75;;;;;;;;;;5036321;28;20052;-81
2023/12/04 06:10:44;;;;;;;9.27;6.57;;;;;;;;;;5034441;28;20048;-80
2023/12/04 06:13:11;;;;;;;9.25;6.70;;;;;;;;;;5041362;28;20511;-81
2023/12/04 06:15:40;;;;;;;15.48;10.65;;;;;;;;;;5010404;28;20053;-80
2023/12/04 06:18:10;;;;;;;12.60;8.98;;;;;;;;;;5048380;28;20056;-80
2023/12/04 06:20:37;;;;;;;12.63;8.02;;;;;;;;;;5034737;28;20056;-80
2023/12/04 06:23:05;;;;;;;11.68;9.73;;;;;;;;;;5022791;28;20378;-80
2023/12/04 06:25:38;;;;;;;11.73;8.63;;;;;;;;;;5050023;28;20052;-80
2023/12/04 06:28:09;;;;;;;10.20;9.18;;;;;;;;;;5051229;28;20053;-81
2023/12/04 06:30:40;;;;;;;8.75;6.03;;;;;;;;;;5028014;28;20079;-80
2023/12/04 06:33:08;;;;;;;10.02;6.75;;;;;;;;;;5051468;28;20351;-81
2023/12/04 06:35:38;;;;;;;16.92;9.98;;;;;;;;;;5023531;28;20052;-80
2023/12/04 06:38:07;;;;;;;14.07;9.15;;;;;;;;;;5024701;28;20053;-80
2023/12/04 06:40:37;;;;;;;10.55;8.77;;;;;;;;;;5036221;28;20049;-81
2023/12/04 06:43:09;;;;;;;10.95;7.80;;;;;;;;;;5051669;28;20059;-81
2023/12/04 06:45:37;;;;;;;10.90;6.72;;;;;;;;;;5009634;28;20056;-81
2023/12/04 06:48:08;;;;;;;11.75;8.27;;;;;;;;;;5052195;28;20068;-81
2023/12/04 06:50:35;;;;;;;12.38;7.80;;;;;;;;;;5057665;28;20060;-81
2023/12/04 06:53:02;;;;;;;17.38;11.38;;;;;;;;;;5018524;28;20064;-81
2023/12/04 06:55:32;;;;;;;14.68;9.93;;;;;;;;;;5042733;28;20045;-80
2023/12/04 06:58:01;;;;;;;14.27;8.00;;;;;;;;;;5058798;28;20518;-81
2023/12/04 07:00:28;;;;;;;11.65;7.78;;;;;;;;;;5028822;28;20064;-81
2023/12/04 07:02:55;;;;;;;8.73;7.78;;;;;;;;;;5042774;28;20045;-81
2023/12/04 07:05:23;;;;;;;12.82;8.43;;;;;;;;;;5019907;28;20072;-81
2023/12/04 07:07:50;;;;;;;9.95;6.55;;;;;;;;;;5015539;28;20064;-81
2023/12/04 07:10:20;;;;;;;11.48;7.25;;;;;;;;;;5013805;28;20040;-81
2023/12/04 07:12:49;;;;;;;10.20;7.05;;;;;;;;;;5013703;28;20052;-81
2023/12/04 07:15:18;;;;;;;10.98;8.05;;;;;;;;;;5033809;28;20053;-81
2023/12/04 07:17:45;;;;;;;12.13;7.65;;;;;;;;;;5029554;28;20496;-81
2023/12/04 07:20:15;;;;;;;11.15;7.30;;;;;;;;;;5022841;28;20048;-81
2023/12/04 07:22:44;;;;;;;10.60;9.52;;;;;;;;;;5058244;28;20041;-82
2023/12/04 07:25:12;;;;;;;12.15;8.93;;;;;;;;;;5020209;28;20044;-81
2023/12/04 07:27:39;;;;;;;9.40;6.25;;;;;;;;;;5012945;28;20045;-81
2023/12/04 07:30:07;;;;;;;9.23;6.13;;;;;;;;;;5035613;28;20057;-81
2023/12/04 07:32:38;;;;;;;11.32;9.52;;;;;;;;;;5020999;28;20064;-81
2023/12/04 07:35:07;;;;;;;10.10;8.05;;;;;;;;;;5059139;28;20049;-82
2023/12/04 07:37:34;;;;;;;11.30;8.30;;;;;;;;;;5059749;28;20041;-82
2023/12/04 07:40:08;;;;;;;11.10;9.23;;;;;;;;;;5061272;23;20044;-78
2023/12/04 07:42:38;;;;;;;12.30;9.18;;;;;;;;;;5036727;28;20060;-77
2023/12/04 07:45:06;;;;;;;12.05;8.40;;;;;;;;;;5056660;28;20049;-78
2023/12/04 07:47:34;;;;;;;11.02;8.02;;;;;;;;;;5039057;28;20078;-78
2023/12/04 07:50:08;;;;;;;11.95;9.18;;;;;;;;;;5021800;28;20060;-78
2023/12/04 07:52:35;;;;;;;12.93;10.05;;;;;;;;;;5040759;28;20044;-78
2023/12/04 07:55:03;;;;;;;12.57;10.43;;;;;;;;;;5038714;28;20052;-77
2023/12/04 07:57:30;;;;;;;13.18;11.82;;;;;;;;;;5053290;28;20052;-81
2023/12/04 07:59:58;;;;;;;10.52;9.43;;;;;;;;;;5057192;28;20056;-80
2023/12/04 08:02:25;;;;;;;12.50;9.02;;;;;;;;;;5034677;28;20032;-79
2023/12/04 08:04:54;;;;;;;12.30;9.52;;;;;;;;;;5074316;28;20386;-79
2023/12/04 08:07:23;;;;;;;10.23;8.20;;;;;;;;;;5025413;28;20071;-79
2023/12/04 08:09:50;;;;;;;8.80;7.70;;;;;;;;;;5024485;28;20742;-79
2023/12/04 08:12:20;;;;;;;10.88;7.47;;;;;;;;;;5032541;28;20051;-79
2023/12/04 08:14:47;;;;;;;11.90;10.05;;;;;;;;;;5041032;28;20048;-79
2023/12/04 08:17:17;;;;;;;11.82;10.13;;;;;;;;;;5070657;28;20501;-79
2023/12/04 08:19:45;;;;;;;12.13;8.68;;;;;;;;;;5034502;28;20071;-79
2023/12/04 08:22:14;;;;;;;10.82;8.13;;;;;;;;;;5031773;28;20057;-79
2023/12/04 08:24:43;;;;;;;11.48;7.65;;;;;;;;;;5022166;28;20056;-80
2023/12/04 08:27:13;;;;;;;9.38;7.68;;;;;;;;;;5050653;28;20505;-79
2023/12/04 08:29:42;;;;;;;7.68;6.47;;;;;;;;;;5051409;28;20044;-79
2023/12/04 08:32:09;;;;;;;10.38;8.30;;;;;;;;;;5037060;28;20045;-79
2023/12/04 08:34:37;;;;;;;10.60;8.85;;;;;;;;;;5066991;28;20051;-79
2023/12/04 08:37:06;;;;;;;11.82;8.02;;;;;;;;;;5034003;28;20060;-79
2023/12/04 08:39:33;;;;;;;13.85;9.65;;;;;;;;;;5065919;28;20049;-79
2023/12/04 08:42:05;;;;;;;12.18;10.98;;;;;;;;;;5064276;28;20040;-80
2023/12/04 08:44:34;;;;;;;12.20;9.32;;;;;;;;;;5026643;28;20045;-79
2023/12/04 08:47:04;;;;;;;10.73;6.90;;;;;;;;;;5023269;28;20049;-79
2023/12/04 08:49:34;;;;;;;10.20;7.85;;;;;;;;;;5001822;28;20072;-78
2023/12/04 08:52:04;;;;;;;11.75;9.65;;;;;;;;;;5011026;28;20056;-79
2023/12/04 08:54:34;;;;;;;11.35;8.43;;;;;;;;;;5028738;28;20045;-79
2023/12/04 08:57:05;;;;;;;10.82;7.03;;;;;;;;;;5027300;28;20443;-79
2023/12/04 08:59:37;;;;;;;10.13;7.43;;;;;;;;;;5034800;28;20507;-79
2023/12/04 09:02:05;;;;;;;9.45;7.40;;;;;;;;;;5025507;28;20045;-79
2023/12/04 09:04:36;;;;;;;10.20;7.93;;;;;;;;;;5029008;28;20511;-79
2023/12/04 09:07:04;;;;;;;13.75;8.90;;;;;;;;;;5029102;28;20397;-79
2023/12/04 09:09:32;;;;;;;10.48;7.47;;;;;;;;;;5025947;28;20057;-79
2023/12/04 09:11:59;;;;;;;10.93;7.70;;;;;;;;;;5010525;28;20052;-78
2023/12/04 09:14:28;;;;;;;6.95;5.80;;;;;;;;;;5030646;28;20049;-78
2023/12/04 09:16:56;;;;;;;8.23;6.55;;;;;;;;;;5028005;28;20124;-78
2023/12/04 09:19:25;;;;;;;10.32;6.82;;;;;;;;;;5019153;28;20048;-78
2023/12/04 09:21:55;;;;;;;9.10;6.53;;;;;;;;;;5031073;28;20045;-79
2023/12/04 09:24:24;;;;;;;10.80;7.25;;;;;;;;;;5019698;28;20049;-79
2023/12/04 09:26:54;;;;;;;9.38;6.40;;;;;;;;;;5023232;28;20041;-78
2023/12/04 09:29:23;;;;;;;8.52;6.43;;;;;;;;;;5030277;28;20041;-78
2023/12/04 09:31:55;;;;;;;10.35;7.40;;;;;;;;;;5024809;28;20514;-78
2023/12/04 09:34:22;;;;;;;8.90;6.85;;;;;;;;;;5031366;28;20041;-79
2023/12/04 09:36:50;;;;;;;9.85;6.85;;;;;;;;;;5028374;28;20060;-78
2023/12/04 09:39:17;;;;;;;7.97;6.20;;;;;;;;;;5020741;28;20057;-79
2023/12/04 09:41:46;;;;;;;9.80;7.50;;;;;;;;;;5032616;28;20064;-79
2023/12/04 09:44:17;;;;;;;8.07;6.30;;;;;;;;;;5041820;28;20026;-79
2023/12/04 09:46:44;;;;;;;8.30;6.97;;;;;;;;;;5046288;28;20038;-78
2023/12/04 09:49:16;;;;;;;7.82;6.07;;;;;;;;;;5036439;28;20050;-78
2023/12/04 09:51:43;;;;;;;9.27;7.65;;;;;;;;;;5016569;28;20057;-79
2023/12/04 09:54:10;;;;;;;9.43;7.10;;;;;;;;;;5005246;28;20128;-79
2023/12/04 09:56:40;;;;;;;9.43;6.60;;;;;;;;;;5011031;28;20064;-79
2023/12/04 09:59:08;;;;;;;7.15;5.72;;;;;;;;;;5006984;28;20045;-79
2023/12/04 10:01:38;;;;;;;8.98;5.85;;;;;;;;;;5008966;28;20049;-79
2023/12/04 10:04:09;;;;;;;10.80;8.15;;;;;;;;;;5019815;28;20424;-79
2023/12/04 10:06:38;;;;;;;10.25;6.18;;;;;;;;;;5003258;28;20049;-79
2023/12/04 10:09:11;;;;;;;17.77;8.10;;;;;;;;;;5022033;28;20041;-80
2023/12/04 10:11:41;;;;;;;8.93;7.40;;;;;;;;;;5025542;28;20053;-80
2023/12/04 10:14:16;;;;;;;7.75;7.00;;;;;;;;;;5018328;28;20077;-80
2023/12/04 10:16:46;;;;;;;8.60;5.75;;;;;;;;;;5005162;28;20515;-80
2023/12/04 10:19:18;;;;;;;7.80;6.55;;;;;;;;;;5023681;28;20518;-80
2023/12/04 10:21:50;;;;;;;9.98;6.82;;;;;;;;;;5028178;28;20057;-80
2023/12/04 10:24:36;;;;;;;9.93;7.20;;;;;;;;;;5027852;28;20053;-80
2023/12/04 10:27:04;;;;;;;10.27;6.65;;;;;;;;;;5026552;28;20052;-80
2023/12/04 10:29:42;;;;;;;13.07;8.27;;;;;;;;;;5028674;28;20060;-80
2023/12/04 10:32:19;;;;;;;8.07;6.15;;;;;;;;;;5021800;28;20068;-80
2023/12/04 10:34:50;;;;;;;8.25;6.57;;;;;;;;;;5024319;28;20042;-80
2023/12/04 10:37:22;;;;;;;11.57;7.75;;;;;;;;;;4998197;28;20046;-79
2023/12/04 10:39:54;;;;;;;10.57;7.88;;;;;;;;;;5026979;28;20057;-80
2023/12/04 10:42:26;;;;;;;7.68;5.20;;;;;;;;;;5019616;28;20060;-79
2023/12/04 10:44:56;;;;;;;10.73;6.47;;;;;;;;;;5035852;28;20041;-79
2023/12/04 10:47:23;;;;;;;9.63;7.90;;;;;;;;;;5031291;28;20057;-79
2023/12/04 10:49:51;;;;;;;11.38;6.95;;;;;;;;;;5021778;28;20053;-80
2023/12/04 10:52:22;;;;;;;7.75;6.35;;;;;;;;;;5047326;28;20451;-79
2023/12/04 10:54:52;;;;;;;8.63;5.82;;;;;;;;;;5029413;28;20052;-79
2023/12/04 10:57:25;;;;;;;9.70;7.28;;;;;;;;;;5017366;28;20060;-78
2023/12/04 10:59:58;;;;;;;8.30;6.45;;;;;;;;;;5011864;28;20041;-79
2023/12/04 11:02:27;;;;;;;8.73;7.72;;;;;;;;;;5034570;28;20515;-79
2023/12/04 11:05:04;;;;;;;10.68;7.95;;;;;;;;;;5019750;28;20403;-79
2023/12/04 11:07:36;;;;;;;11.60;7.22;;;;;;;;;;5038030;28;20052;-79
2023/12/04 11:10:05;;;;;;;10.88;7.90;;;;;;;;;;5013014;28;20049;-79
2023/12/04 11:12:35;;;;;;;8.25;6.55;;;;;;;;;;5013780;28;20503;-78
2023/12/04 11:15:04;;;;;;;8.32;6.50;;;;;;;;;;5017244;28;20119;-78
2023/12/04 11:17:36;;;;;;;;;;;;;;;;;;5031758;28;20494;-79
2023/12/04 11:20:07;;;;;;;8.68;7.00;;;;;;;;;;5029723;28;19925;-78
2023/12/04 11:22:38;;;;;;;8.60;6.28;;;;;;;;;;5046786;28;20407;-79
2023/12/04 11:25:07;;;;;;;8.55;6.93;;;;;;;;;;5032470;28;20053;-79
2023/12/04 11:27:38;;;;;;;9.07;7.90;;;;;;;;;;5013809;28;20049;-79
2023/12/04 11:30:08;;;;;;;9.55;7.05;;;;;;;;;;5027537;28;20076;-79
2023/12/04 11:32:44;;;;;;;6.60;5.72;;;;;;;;;;5034920;28;20053;-79
2023/12/04 11:35:17;;;;;;;9.25;7.93;;;;;;;;;;5031894;28;20037;-78
2023/12/04 11:37:49;;;;;;;8.98;7.90;;;;;;;;;;5044529;28;20399;-78
2023/12/04 11:40:19;;;;;;;8.18;7.38;;;;;;;;;;5029474;28;20423;-78
2023/12/04 11:42:47;;;;;;;9.32;7.97;;;;;;;;;;5046481;28;20299;-78
2023/12/04 11:45:21;;;;;;;9.75;7.68;;;;;;;;;;5011088;28;20054;-79
2023/12/04 11:47:52;;;;;;;11.35;7.57;;;;;;;;;;5010413;28;20451;-79
2023/12/04 11:50:22;;;;;;;17.55;9.45;;;;;;;;;;5032000;28;20048;-79
2023/12/04 11:52:54;;;;;;;8.77;7.88;;;;;;;;;;5035566;28;20056;-79
2023/12/04 11:55:22;;;;;;;12.40;8.98;;;;;;;;;;5016260;28;20048;-79
2023/12/04 11:57:51;;;;;;;11.10;7.32;;;;;;;;;;5028301;28;20399;-79
2023/12/04 12:00:23;;;;;;;12.10;8.43;;;;;;;;;;5047153;28;20037;-79
2023/12/04 12:03:04;;;;;;;12.15;8.32;;;;;;;;;;5046308;28;20419;-79
2023/12/04 12:05:34;;;;;;;10.40;9.10;;;;;;;;;;5037920;28;20065;-79
2023/12/04 12:08:04;;;;;;;12.68;10.30;;;;;;;;;;5018326;28;20057;-79
2023/12/04 12:10:34;;;;;;;12.75;8.65;;;;;;;;;;5016919;28;20060;-79
2023/12/04 12:13:01;;;;;;;11.02;8.82;;;;;;;;;;5015093;28;20048;-79
2023/12/04 12:15:33;;;;;;;10.45;8.10;;;;;;;;;;5034216;28;20510;-79
2023/12/04 12:18:04;;;;;;;12.15;9.45;;;;;;;;;;5016423;28;20057;-79
2023/12/04 12:20:37;;;;;;;9.75;8.07;;;;;;;;;;5031850;28;20056;-79
2023/12/04 12:23:06;;;;;;;12.48;9.00;;;;;;;;;;5045397;28;20052;-79
2023/12/04 12:25:33;;;;;;;12.43;7.50;;;;;;;;;;5013630;28;20049;-79
2023/12/04 12:28:03;;;;;;;14.77;9.00;;;;;;;;;;5029221;28;20056;-79
2023/12/04 12:30:30;;;;;;;10.27;7.95;;;;;;;;;;5010671;28;20064;-79
2023/12/04 12:32:58;;;;;;;11.75;8.38;;;;;;;;;;5028861;28;20046;-79
2023/12/04 12:35:31;;;;;;;12.88;9.82;;;;;;;;;;5029879;28;20053;-79
2023/12/04 12:37:58;;;;;;;12.07;7.97;;;;;;;;;;5015146;28;20068;-79
2023/12/04 12:40:28;;;;;;;11.57;9.07;;;;;;;;;;5035079;28;20451;-79
2023/12/04 12:43:05;;;;;;;10.63;7.67;;;;;;;;;;5033727;28;20052;-79
2023/12/04 12:45:40;;;;;;;10.07;8.10;;;;;;;;;;5032425;28;20033;-79
2023/12/04 12:48:11;;;;;;;11.88;10.18;;;;;;;;;;5032083;28;20488;-79
2023/12/04 12:50:42;;;;;;;9.60;8.32;;;;;;;;;;5032078;28;20045;-79
2023/12/04 12:53:09;;;;;;;10.30;9.20;;;;;;;;;;5041663;28;20079;-79
2023/12/04 12:55:43;;;;;;;12.00;9.07;;;;;;;;;;5028922;28;20653;-79
2023/12/04 12:58:13;;;;;;;11.18;8.60;;;;;;;;;;5024810;28;20064;-79
2023/12/04 13:00:42;;;;;;;10.25;9.20;;;;;;;;;;5030389;28;20041;-79
2023/12/04 13:03:15;;;;;;;9.90;8.38;;;;;;;;;;5049317;28;20052;-79
2023/12/04 13:05:42;;;;;;;11.48;8.35;;;;;;;;;;4998648;28;20056;-79
2023/12/04 13:08:12;;;;;;;13.85;9.18;;;;;;;;;;5009853;28;20052;-79
2023/12/04 13:10:43;;;;;;;14.35;9.75;;;;;;;;;;5015364;28;20052;-79
2023/12/04 13:13:11;;;;;;;11.80;9.18;;;;;;;;;;5034085;28;20045;-79
2023/12/04 13:15:41;;;;;;;10.35;8.70;;;;;;;;;;5003465;28;20041;-78
2023/12/04 13:18:09;;;;;;;10.05;8.93;;;;;;;;;;5027977;28;20055;-78
2023/12/04 13:20:41;;;;;;;10.13;8.80;;;;;;;;;;5014231;28;20045;-79
2023/12/04 13:23:08;;;;;;;9.70;8.65;;;;;;;;;;5015368;28;20407;-79
2023/12/04 13:25:36;;;;;;;11.23;9.60;;;;;;;;;;5015551;28;20052;-79
2023/12/04 13:28:07;;;;;;;10.90;9.73;;;;;;;;;;5027690;28;20056;-79
2023/12/04 13:30:36;;;;;;;14.45;9.68;;;;;;;;;;5032648;28;20040;-78
2023/12/04 13:33:06;;;;;;;9.63;8.30;;;;;;;;;;5029570;28;20061;-78
2023/12/04 13:35:33;;;;;;;11.70;8.65;;;;;;;;;;5014757;28;20132;-78
2023/12/04 13:38:00;;;;;;;11.27;9.05;;;;;;;;;;5028405;28;20068;-78
2023/12/04 13:40:32;;;;;;;11.20;9.02;;;;;;;;;;5061775;22;20029;-79
2023/12/04 13:45:48;;;;;;;12.00;8.70;;;;;;;;;;5030677;28;20053;-78
2023/12/04 13:48:16;;;;;;;12.32;9.75;;;;;;;;;;5006558;28;20415;-78
2023/12/04 13:50:50;;;;;;;11.43;8.80;;;;;;;;;;5009233;28;20053;-78
2023/12/04 13:53:24;;;;;;;11.68;8.93;;;;;;;;;;5011079;28;20045;-78
2023/12/04 13:56:24;;;;;;;9.43;7.88;;;;;;;;;;5026394;28;20067;-78
2023/12/04 13:58:41;;;;;;;11.82;8.35;;;;;;;;;;5005649;28;20045;-78
2023/12/04 14:01:13;;;;;;;10.10;8.38;;;;;;;;;;5047554;28;20059;-78
2023/12/04 14:03:43;;;;;;;11.05;8.73;;;;;;;;;;5039674;28;20056;-78
2023/12/04 14:06:14;;;;;;;11.65;8.07;;;;;;;;;;5033376;28;20052;-78
2023/12/04 14:08:45;;;;;;;11.95;7.45;;;;;;;;;;5028072;28;20056;-78
2023/12/04 14:11:15;;;;;;;15.70;9.27;;;;;;;;;;5014933;28;20045;-78
2023/12/04 14:13:42;;;;;;;10.25;8.93;;;;;;;;;;5030500;28;20063;-78
2023/12/04 14:16:11;;;;;;;10.98;9.00;;;;;;;;;;5029161;28;20048;-78
2023/12/04 14:18:39;;;;;;;10.93;8.30;;;;;;;;;;5008635;28;20052;-78
2023/12/04 14:21:09;;;;;;;11.27;9.05;;;;;;;;;;5006899;28;20061;-78
2023/12/04 14:23:36;;;;;;;12.70;8.43;;;;;;;;;;5029115;28;20041;-78
2023/12/04 14:26:06;;;;;;;10.52;7.82;;;;;;;;;;5011100;28;20057;-78
2023/12/04 14:28:36;;;;;;;9.55;7.95;;;;;;;;;;5042678;28;20506;-78
2023/12/04 14:31:04;;;;;;;11.63;8.88;;;;;;;;;;5031261;28;20056;-78
2023/12/04 14:33:33;;;;;;;13.00;9.07;;;;;;;;;;5013682;28;20072;-78
2023/12/04 14:36:02;;;;;;;11.60;8.50;;;;;;;;;;5043992;28;20044;-78
2023/12/04 14:38:32;;;;;;;9.45;8.45;;;;;;;;;;5013758;28;20052;-78
2023/12/04 14:41:01;;;;;;;13.98;8.93;;;;;;;;;;5025258;28;20060;-78
2023/12/04 14:43:31;;;;;;;12.55;11.25;;;;;;;;;;5025561;28;20056;-78
2023/12/04 14:46:04;;;;;;;11.70;10.30;;;;;;;;;;5043304;28;20056;-78
2023/12/04 14:48:33;;;;;;;13.25;9.95;;;;;;;;;;5011952;28;20412;-78
2023/12/04 14:51:00;;;;;;;11.27;9.60;;;;;;;;;;5014305;28;20042;-78
2023/12/04 14:53:31;;;;;;;13.75;12.13;;;;;;;;;;5028361;28;20053;-78
2023/12/04 15:05:27;;;;;;;11.90;9.07;;;;;;;;;;5040727;28;20048;-78
2023/12/04 15:07:55;;;;;;;13.57;10.45;;;;;;;;;;5039941;28;20431;-78
2023/12/04 15:10:58;;;;;;;13.27;9.02;;;;;;;;;;5006612;28;20049;-78
2023/12/04 15:13:43;;;;;;;14.52;9.35;;;;;;;;;;5021502;28;20410;-79
2023/12/04 15:16:25;;;;;;;14.63;9.23;;;;;;;;;;5045052;28;20076;-79
2023/12/04 15:19:27;;;;;;;13.55;10.00;;;;;;;;;;5024092;28;20052;-79
2023/12/04 15:21:56;;;;;;;13.23;9.57;;;;;;;;;;5007067;28;20534;-78
2023/12/04 15:24:25;;;;;;;13.98;11.18;;;;;;;;;;5043321;28;20425;-78
2023/12/04 15:26:54;;;;;;;10.73;9.63;;;;;;;;;;5029386;28;20045;-78
2023/12/04 15:29:25;;;;;;;12.73;10.30;;;;;;;;;;5013243;28;20045;-78
2023/12/04 15:31:53;;;;;;;19.35;15.20;;;;;;;;;;5014255;28;20061;-78
2023/12/04 15:34:22;;;;;;;18.88;14.70;;;;;;;;;;5018474;28;20072;-78
2023/12/04 15:36:52;;;;;;;17.98;12.95;;;;;;;;;;5029798;28;20045;-78
2023/12/04 15:39:19;;;;;;;16.75;13.20;;;;;;;;;;5030194;28;20049;-78
2023/12/04 15:41:47;;;;;;;18.00;14.27;;;;;;;;;;5015670;28;20535;-78
2023/12/04 15:44:14;;;;;;;16.50;12.60;;;;;;;;;;5016371;28;20049;-78
2023/12/04 15:46:44;;;;;;;14.65;11.55;;;;;;;;;;5008235;28;20068;-78
2023/12/04 15:49:10;;;;;;;14.63;13.15;;;;;;;;;;5012052;28;20538;-79
2023/12/04 15:51:40;;;;;;;15.73;13.68;;;;;;;;;;5031047;28;20052;-79
2023/12/04 15:54:08;;;;;;;14.77;11.55;;;;;;;;;;5018928;28;20149;-79
2023/12/04 15:56:39;;;;;;;16.98;11.75;;;;;;;;;;5017377;28;20530;-79
2023/12/04 15:59:08;;;;;;;13.88;10.70;;;;;;;;;;5009496;28;20085;-79
2023/12/04 16:01:35;;;;;;;13.20;10.80;;;;;;;;;;5013656;28;20503;-79
2023/12/04 16:04:01;;;;;;;14.32;10.70;;;;;;;;;;5044471;28;20052;-77
2023/12/04 16:06:28;;;;;;;12.80;10.18;;;;;;;;;;5023147;28;20053;-78
2023/12/04 16:08:58;;;;;;;13.38;11.77;;;;;;;;;;5028424;28;20061;-78
2023/12/04 16:11:25;;;;;;;12.88;10.77;;;;;;;;;;5032432;28;20053;-78
2023/12/04 16:13:55;;;;;;;11.65;10.55;;;;;;;;;;5032599;28;20418;-78
2023/12/04 16:16:25;;;;;;;13.25;11.48;;;;;;;;;;5021318;28;20522;-78
2023/12/04 16:18:54;;;;;;;14.27;12.90;;;;;;;;;;5026831;28;20396;-78
2023/12/04 16:21:24;;;;;;;16.17;10.80;;;;;;;;;;5027316;28;20140;-78
2023/12/04 16:23:53;;;;;;;17.23;10.88;;;;;;;;;;5024504;28;20538;-78
2023/12/04 16:26:22;;;;;;;15.63;11.70;;;;;;;;;;5033831;28;20502;-78
2023/12/04 16:28:53;;;;;;;14.07;11.90;;;;;;;;;;5014582;28;20045;-78
2023/12/04 16:31:23;;;;;;;13.77;11.63;;;;;;;;;;5027246;28;20052;-78
2023/12/04 16:33:53;;;;;;;12.15;10.95;;;;;;;;;;5027625;28;20052;-78
2023/12/04 16:36:20;;;;;;;15.73;11.43;;;;;;;;;;5030980;28;20057;-78
2023/12/04 16:38:49;;;;;;;14.98;11.02;;;;;;;;;;5028152;28;20053;-78